Airfield :
LOGIN :

Register | Disclaimer

   EN    FR    IT 

 










Legend :    VFR   Marginal VFR   IFR   Intensive IFR   Very Intensive IFR
Visi :
Ceiling :
>= 8 km
>= 3000ft
5 to 8 km
1000 to 3000 ft
1500m to 5 km
500 to 1000 ft
800 to 1500m
200 to 500 ft
< 800m
< 200 ft
Symbols :   Thunderstorms  Fog  Heavy snow  Heavy precipitations  Wind > 20 kt
SIGMETs :     Misc.  Thunderstorms  Icing  Turbulence  Mountain Waves  Volcanic Ashes






- Airport Elevation : 220 ft
- IATA code : CWL


EGFF - Cardiff Rhoose

CURRENT METAR :
  • 221350Z AUTO 31007KT 9999 OVC021 07/03 Q1038

EXPIRED METARs :
  • 221320Z AUTO 33006KT 9999 OVC021 07/03 Q1038
  • 221250Z AUTO 31006KT 9999 OVC020 06/03 Q1039
  • 221220Z AUTO 32005KT 9999 OVC021 06/02 Q1039
  • 221150Z AUTO 32006KT 9999 OVC020 06/02 Q1039
  • 221120Z AUTO 32003KT 290V010 9999 BKN020 07/02 Q1039
  • 221050Z AUTO 29004KT 260V340 9999 OVC020 06/02 Q1039

TAF TAF EGFF
Valid from the 22 at 12:00 until the 23 at 12:00 UTC


221101Z 2212/2312 30005KT 9999 BKN022
PROB30
TEMPO 2212/2214 NSC
PROB30
TEMPO 2222/2309 7000 BKN014
BECMG 2309/2312 14010KT
ATIS : +44 1446 729 319



MET'MAP, your aeronautical weather chart ! - Copyright ORBIFLY December 2007 - Disclaimer

ORBIFLY MET'MAP TEAM :

Programming & Development : Alexandra Zaïnal
Concept & original design : Baudouin d'Aumeries
Assistance for programming : Marc-Olivier Méhu
Technical & hardware support : Manuel Goepfert

Contact : metmap@orbifly.com




SOURCES & CREDITS :

   NOAA